Minneapolis, Minnesota
Traffic Map
Current Weather Conditions
Minneapolis, Minnesota
Broken Clouds
Broken Clouds
23°
Feels Like: 23°
Wind Chill: 23° Ceiling: 25000
Heat Index: 23° Visibility: 10mi
Dew Point: 18° Wind: 10mph
Humidity: 71% Direction: 140° (SE)
Pressure: 30in Gusts: 0mph
Raw Report DataKMSP 281853Z 14009KT 10SM FEW015 SCT150 BKN250 23/18 A3000 RMK AO2 SLP156 T02330178
Traffic Incident Summary
Active as of:
Severity:
Category:
InformationThere was an issue retrieving the traffic information for this location. Please try a different location or try again shortly.
Advertisements
Track Severe Weather on mobile